Time;durP1;ratioP1;P1;durP2;ratioP2;P2;SDS_P1;SDS_P2;PMS_P1;PMS_P2;Temp;Humidity;BMP_temperature;BMP_pressure;BME280_temperature;BME280_humidity;BME280_pressure;Samples;Min_cycle;Max_cycle;Signal;HPM_P1;HPM_P2
2022/01/28 00:00:28;;;;;;;14.38;10.52;;;;;;;;;;5016119;28;20044;-71
2022/01/28 00:03:07;;;;;;;17.88;10.20;;;;;;;;;;5015166;28;20038;-71
2022/01/28 00:05:34;;;;;;;14.43;10.13;;;;;;;;;;5014763;28;20042;-71
2022/01/28 00:08:00;;;;;;;15.32;10.63;;;;;;;;;;5014867;28;20033;-71
2022/01/28 00:10:27;;;;;;;16.98;11.23;;;;;;;;;;5014967;28;20068;-70
2022/01/28 00:15:30;;;;;;;16.02;10.93;;;;;;;;;;5015261;28;20511;-71
2022/01/28 00:18:26;;;;;;;18.40;11.43;;;;;;;;;;5014243;28;20485;-71
2022/01/28 00:21:09;;;;;;;15.38;10.95;;;;;;;;;;5014568;28;20389;-71
2022/01/28 00:39:45;;;;;;;15.48;10.75;;;;;;;;;;5014390;28;20143;-71
2022/01/28 00:42:11;;;;;;;15.77;10.85;;;;;;;;;;5014589;28;20082;-72
2022/01/28 00:44:38;;;;;;;15.63;10.93;;;;;;;;;;5014509;28;20033;-71
2022/01/28 00:47:04;;;;;;;15.18;10.38;;;;;;;;;;5014790;28;20034;-71
2022/01/28 00:49:30;;;;;;;15.43;10.75;;;;;;;;;;5014668;28;20053;-71
2022/01/28 00:51:56;;;;;;;16.40;10.65;;;;;;;;;;5014558;28;20034;-71
2022/01/28 00:54:23;;;;;;;16.52;11.27;;;;;;;;;;5014201;28;20038;-71
2022/01/28 00:56:49;;;;;;;16.17;11.50;;;;;;;;;;5014594;28;20068;-72
2022/01/28 00:59:16;;;;;;;14.93;10.68;;;;;;;;;;5014437;28;20529;-71
2022/01/28 01:01:42;;;;;;;17.98;11.32;;;;;;;;;;5013895;28;20505;-71
2022/01/28 01:04:08;;;;;;;15.82;10.90;;;;;;;;;;5014174;28;20037;-71
2022/01/28 01:06:35;;;;;;;14.57;10.95;;;;;;;;;;5014248;28;20044;-72
2022/01/28 01:09:01;;;;;;;14.55;10.75;;;;;;;;;;5014341;28;20099;-71
2022/01/28 01:11:28;;;;;;;17.17;11.60;;;;;;;;;;5013974;28;20487;-71
2022/01/28 01:13:55;;;;;;;16.77;11.35;;;;;;;;;;5014102;28;20099;-71
2022/01/28 01:16:39;;;;;;;17.10;11.40;;;;;;;;;;5014504;28;20034;-71
2022/01/28 01:21:41;;;;;;;16.45;10.48;;;;;;;;;;5014565;28;20112;-71
2022/01/28 01:24:10;;;;;;;15.20;9.95;;;;;;;;;;5014903;28;20503;-71
2022/01/28 01:26:39;;;;;;;14.82;10.35;;;;;;;;;;5017928;28;20045;-71
2022/01/28 01:29:08;;;;;;;14.55;9.85;;;;;;;;;;5017681;28;20044;-71
2022/01/28 01:31:35;;;;;;;14.93;10.57;;;;;;;;;;5018237;28;20029;-71
2022/01/28 01:34:12;;;;;;;15.27;10.40;;;;;;;;;;5017638;28;20042;-71
2022/01/28 01:36:39;;;;;;;15.85;10.10;;;;;;;;;;5018283;28;20066;-71
2022/01/28 01:39:08;;;;;;;14.02;10.23;;;;;;;;;;5018043;28;20037;-71
2022/01/28 01:41:39;;;;;;;13.00;9.45;;;;;;;;;;5017608;28;20372;-71
2022/01/28 01:54:28;;;;;;;11.25;8.38;;;;;;;;;;5017005;28;20061;-71
2022/01/28 01:56:54;;;;;;;12.82;8.90;;;;;;;;;;5017466;28;20037;-71
2022/01/28 01:59:21;;;;;;;12.38;8.82;;;;;;;;;;5017776;28;20113;-72
2022/01/28 02:01:47;;;;;;;11.65;7.80;;;;;;;;;;5017122;28;20123;-71
2022/01/28 02:04:13;;;;;;;10.80;7.82;;;;;;;;;;5016904;28;20042;-71
2022/01/28 02:06:40;;;;;;;12.23;8.38;;;;;;;;;;5016870;28;20180;-71
2022/01/28 02:09:07;;;;;;;12.35;8.27;;;;;;;;;;5016950;28;20041;-71
2022/01/28 02:11:33;;;;;;;14.07;8.65;;;;;;;;;;5017170;28;20034;-71
2022/01/28 02:13:59;;;;;;;11.98;8.48;;;;;;;;;;5016643;28;20469;-72
2022/01/28 02:16:27;;;;;;;13.82;8.57;;;;;;;;;;5016226;28;20053;-71
2022/01/28 02:18:55;;;;;;;10.55;7.55;;;;;;;;;;5016800;28;20041;-71
2022/01/28 02:21:22;;;;;;;13.32;8.35;;;;;;;;;;5016369;28;20485;-71
2022/01/28 02:23:53;;;;;;;9.75;7.05;;;;;;;;;;5016649;28;20046;-72
2022/01/28 02:26:19;;;;;;;13.23;8.60;;;;;;;;;;5016625;28;20113;-72
2022/01/28 02:28:50;;;;;;;12.32;8.43;;;;;;;;;;5016586;28;20077;-71
2022/01/28 02:31:26;;;;;;;12.90;9.27;;;;;;;;;;5016486;28;20042;-71
2022/01/28 02:33:55;;;;;;;11.73;8.10;;;;;;;;;;5015738;28;20580;-71
2022/01/28 02:36:21;;;;;;;10.23;7.60;;;;;;;;;;5016375;28;20132;-71
2022/01/28 02:38:47;;;;;;;10.85;7.72;;;;;;;;;;5016642;28;20481;-71
2022/01/28 02:41:13;;;;;;;14.50;8.45;;;;;;;;;;5016908;28;20057;-71
2022/01/28 02:44:07;;;;;;;11.50;7.55;;;;;;;;;;5016508;28;20034;-71
2022/01/28 02:46:36;;;;;;;12.02;7.93;;;;;;;;;;5015567;28;20500;-70
2022/01/28 02:49:09;;;;;;;11.07;7.78;;;;;;;;;;5016466;28;20061;-71
2022/01/28 02:51:35;;;;;;;13.02;8.88;;;;;;;;;;5015571;28;20068;-71
2022/01/28 02:54:12;;;;;;;12.25;8.10;;;;;;;;;;5016120;28;20042;-71
2022/01/28 02:56:46;;;;;;;10.18;7.03;;;;;;;;;;5016343;28;20080;-71
2022/01/28 02:59:12;;;;;;;9.88;7.32;;;;;;;;;;5016065;28;20045;-72
2022/01/28 03:01:38;;;;;;;8.65;6.40;;;;;;;;;;5015674;28;20034;-71
2022/01/28 03:04:06;;;;;;;10.63;7.13;;;;;;;;;;5016137;28;20038;-71
2022/01/28 03:06:32;;;;;;;10.13;6.85;;;;;;;;;;5015731;28;20084;-71
2022/01/28 03:09:03;;;;;;;10.07;7.32;;;;;;;;;;5016161;28;20046;-71
2022/01/28 03:14:18;;;;;;;9.85;6.78;;;;;;;;;;5015638;28;19979;-71
2022/01/28 03:19:41;;;;;;;8.63;6.40;;;;;;;;;;5015801;28;20033;-71
2022/01/28 03:22:07;;;;;;;8.15;6.40;;;;;;;;;;5015847;28;20041;-71
2022/01/28 03:24:33;;;;;;;8.98;7.10;;;;;;;;;;5015806;28;20034;-71
2022/01/28 03:27:06;;;;;;;10.57;6.60;;;;;;;;;;5015839;28;20038;-71
2022/01/28 03:29:32;;;;;;;10.48;6.70;;;;;;;;;;5015493;28;20046;-72
2022/01/28 03:31:58;;;;;;;9.52;6.72;;;;;;;;;;5015484;28;20125;-71
2022/01/28 03:34:24;;;;;;;11.32;6.70;;;;;;;;;;5015576;28;20061;-71
2022/01/28 03:36:51;;;;;;;9.38;6.35;;;;;;;;;;5015600;28;20464;-71
2022/01/28 03:39:18;;;;;;;9.93;6.65;;;;;;;;;;5016107;28;20048;-71
2022/01/28 03:41:44;;;;;;;8.40;6.40;;;;;;;;;;5015299;28;20088;-71
2022/01/28 03:44:10;;;;;;;7.78;6.13;;;;;;;;;;5015825;28;20044;-71
2022/01/28 03:46:37;;;;;;;10.05;5.90;;;;;;;;;;5014947;28;20431;-71
2022/01/28 03:49:04;;;;;;;9.15;6.13;;;;;;;;;;5015110;28;20072;-71
2022/01/28 03:51:30;;;;;;;9.30;5.97;;;;;;;;;;5015441;28;20044;-71
2022/01/28 03:53:56;;;;;;;8.65;5.95;;;;;;;;;;5015965;28;20036;-71
2022/01/28 03:56:22;;;;;;;9.98;6.00;;;;;;;;;;5015031;28;20504;-72
2022/01/28 03:58:49;;;;;;;8.63;5.93;;;;;;;;;;5015334;28;20030;-71
2022/01/28 04:01:22;;;;;;;7.60;5.38;;;;;;;;;;5015583;28;20069;-71
2022/01/28 04:04:15;;;;;;;8.20;5.82;;;;;;;;;;5014825;28;20103;-71
2022/01/28 04:12:04;;;;;;;8.70;5.70;;;;;;;;;;5014969;28;20415;-71
2022/01/28 04:17:20;;;;;;;6.90;5.20;;;;;;;;;;5015237;28;20049;-71
2022/01/28 04:19:46;;;;;;;7.80;5.00;;;;;;;;;;5014599;28;20113;-71
2022/01/28 04:22:12;;;;;;;7.80;5.10;;;;;;;;;;5015067;28;20044;-71
2022/01/28 04:24:38;;;;;;;7.50;5.22;;;;;;;;;;5014728;28;20168;-71
2022/01/28 04:27:05;;;;;;;7.47;5.10;;;;;;;;;;5014804;28;20045;-71
2022/01/28 04:29:31;;;;;;;7.43;5.05;;;;;;;;;;5015071;28;20052;-71
2022/01/28 04:31:57;;;;;;;6.30;4.90;;;;;;;;;;5015044;28;20029;-71
2022/01/28 04:34:24;;;;;;;5.80;4.38;;;;;;;;;;5015041;28;20087;-71
2022/01/28 04:45:25;;;;;;;7.28;4.80;;;;;;;;;;5014577;28;20088;-71
2022/01/28 04:47:36;;;;;;;5.30;4.50;;;;;;;;;;5013545;28;20049;-71
2022/01/28 04:53:06;;;;;;;7.80;5.10;;;;;;;;;;5014158;28;20400;-71
2022/01/28 05:04:02;;;;;;;8.55;5.47;;;4.40;1.00;;;;;;5015163;28;20209;-71
2022/01/28 05:17:00;;;;;;;12.77;9.05;;;3.80;1.00;;;;;;5008047;28;20098;-71
2022/01/28 05:27:19;;;;;;;14.18;9.70;;;;;;;;;;5020180;28;20046;-71
2022/01/28 05:29:45;;;;;;;15.93;10.32;;;;;;;;;;5018235;28;20065;-71
2022/01/28 05:32:12;;;;;;;15.88;10.55;;;;;;;;;;5017825;28;20136;-72
2022/01/28 05:34:38;;;;;;;17.23;11.48;;;;;;;;;;5033513;28;20037;-72
2022/01/28 05:37:05;;;;;;;14.57;10.07;;;;;;;;;;5037090;28;20072;-71
2022/01/28 05:39:31;;;;;;;15.35;10.05;;;;;;;;;;5037701;28;20042;-71
2022/01/28 05:41:57;;;;;;;16.63;10.27;;;;;;;;;;5037302;28;20041;-70
2022/01/28 05:44:23;;;;;;;17.27;10.85;;;;;;;;;;5037269;28;20122;-70
2022/01/28 05:46:51;;;;;;;14.95;10.40;;;;;;;;;;5037529;28;20104;-71
2022/01/28 05:49:18;;;;;;;16.55;10.70;;;;;;;;;;5037478;28;20087;-70
2022/01/28 05:51:44;;;;;;;15.57;10.18;;;;;;;;;;5037423;28;20041;-70
2022/01/28 05:54:10;;;;;;;14.25;9.52;;;;;;;;;;5037084;28;20041;-71
2022/01/28 05:56:37;;;;;;;15.98;10.18;;;;;;;;;;5037724;28;20045;-70
2022/01/28 05:59:03;;;;;;;14.75;9.52;;;;;;;;;;5037280;28;20534;-71
2022/01/28 06:01:29;;;;;;;16.90;10.45;;;;;;;;;;5037596;28;20077;-71
2022/01/28 06:03:56;;;;;;;57.10;27.63;;;;;;;;;;5036673;28;20357;-70
2022/01/28 06:06:23;;;;;;;16.15;10.40;;;;;;;;;;5037033;28;20047;-71
2022/01/28 06:08:50;;;;;;;14.80;9.93;;;;;;;;;;5037050;28;20083;-70
2022/01/28 06:11:17;;;;;;;21.15;11.95;;;;;;;;;;5036017;28;20465;-70
2022/01/28 06:13:43;;;;;;;15.93;10.27;;;;;;;;;;5036663;28;20033;-70
2022/01/28 06:16:10;;;;;;;17.48;11.00;;;;;;;;;;5036157;28;20140;-70
2022/01/28 06:18:36;;;;;;;14.73;9.63;;;;;;;;;;5036274;28;20120;-70
2022/01/28 06:21:03;;;;;;;13.75;8.95;;;;;;;;;;5036308;28;20041;-70
2022/01/28 06:23:29;;;;;;;15.15;10.48;;;;;;;;;;5036086;28;20040;-70
2022/01/28 06:25:56;;;;;;;14.95;9.55;;;;;;;;;;5036267;28;20045;-70
2022/01/28 06:28:22;;;;;;;15.85;9.82;;;;;;;;;;5016108;28;20033;-70
2022/01/28 06:30:48;;;;;;;12.15;8.38;;;;;;;;;;5017118;28;20041;-70
2022/01/28 06:33:15;;;;;;;13.27;8.68;;;;;;;;;;5016161;28;20038;-70
2022/01/28 06:35:41;;;;;;;14.73;9.10;;;;;;;;;;5015803;28;20042;-70
2022/01/28 06:38:07;;;;;;;15.10;9.45;;;;;;;;;;5014753;28;20049;-69
2022/01/28 06:40:34;;;;;;;12.38;8.52;;;;;;;;;;5015810;28;20041;-70
2022/01/28 06:43:00;;;;;;;13.55;8.25;;;;;;;;;;5015072;28;20041;-70
2022/01/28 06:45:26;;;;;;;13.98;8.57;;;;;;;;;;5015403;28;20050;-70
2022/01/28 06:47:52;;;;;;;12.15;8.35;;;;;;;;;;5015892;28;20111;-69
2022/01/28 06:50:18;;;;;;;12.15;7.65;;;;;;;;;;5016108;28;20050;-70
2022/01/28 06:52:45;;;;;;;12.45;7.60;;;;;;;;;;5016226;28;20037;-70
2022/01/28 06:55:16;;;;;;;9.73;7.47;;;;;;;;;;5016123;28;20052;-69
2022/01/28 06:57:42;;;;;;;9.82;6.57;;;;;;;;;;5016037;28;20037;-69
2022/01/28 07:00:09;;;;;;;11.35;7.05;;;;;;;;;;5016565;28;20061;-70
2022/01/28 07:02:35;;;;;;;13.18;7.72;;;;;;;;;;5016028;28;20029;-70
2022/01/28 07:05:01;;;;;;;13.15;8.27;;;;;;;;;;5015348;28;20048;-69
2022/01/28 07:07:28;;;;;;;13.20;8.20;;;;;;;;;;5014608;28;20385;-70
2022/01/28 07:09:54;;;;;;;12.45;7.15;;;;;;;;;;5016166;28;20069;-69
2022/01/28 07:12:20;;;;;;;10.18;6.53;;;;;;;;;;5015779;28;20030;-69
2022/01/28 07:14:47;;;;;;;15.02;8.57;;;;;;;;;;5015853;28;20038;-69
2022/01/28 07:17:14;;;;;;;10.35;6.60;;;;;;;;;;5015541;28;20116;-69
2022/01/28 07:19:40;;;;;;;9.85;6.07;;;;;;;;;;5015682;28;20042;-69
2022/01/28 07:22:06;;;;;;;7.40;5.22;;;;;;;;;;5014972;28;20053;-69
2022/01/28 07:24:32;;;;;;;10.45;7.20;;;;;;;;;;4992056;28;20122;-69
2022/01/28 07:26:58;;;;;;;11.88;6.93;;;;;;;;;;4993887;28;20038;-69
2022/01/28 07:29:28;;;;;;;12.75;7.57;;;;;;;;;;5002957;28;20046;-69
2022/01/28 07:31:54;;;;;;;11.60;7.72;;;;;;;;;;5011924;28;20036;-69
2022/01/28 07:34:20;;;;;;;10.32;7.55;;;;;;;;;;5014534;28;20121;-69
2022/01/28 07:36:47;;;;;;;11.02;7.85;;;;;;;;;;5013816;28;20117;-69
2022/01/28 07:39:13;;;;;;;11.75;8.77;;;;;;;;;;5014160;28;20044;-69
2022/01/28 07:41:39;;;;;;;12.70;8.95;;;;;;;;;;5014207;28;20050;-69
2022/01/28 07:44:05;;;;;;;15.05;9.45;;;;;;;;;;5014364;28;20030;-69
2022/01/28 07:46:32;;;;;;;14.13;9.77;;;;;;;;;;5014266;28;20042;-69
2022/01/28 07:48:58;;;;;;;15.05;9.85;;;;;;;;;;5014089;28;20053;-69
2022/01/28 07:51:24;;;;;;;14.43;9.95;;;;;;;;;;5013228;28;20042;-69
2022/01/28 07:53:50;;;;;;;14.05;9.45;;;;;;;;;;5011535;28;20443;-69
2022/01/28 07:56:17;;;;;;;15.93;10.57;;;;;;;;;;5005778;28;20156;-69
2022/01/28 07:58:43;;;;;;;19.55;11.80;;;;;;;;;;4994825;28;20049;-69
2022/01/28 08:01:09;;;;;;;17.50;11.25;;;;;;;;;;4994756;28;20038;-68
2022/01/28 08:03:35;;;;;;;16.55;11.35;;;;;;;;;;4994556;28;20042;-69
2022/01/28 08:06:02;;;;;;;15.95;11.05;;;;;;;;;;4994195;28;20042;-68
2022/01/28 08:08:28;;;;;;;17.73;11.10;;;;;;;;;;4995175;28;20042;-69
2022/01/28 08:10:55;;;;;;;18.73;11.85;;;;;;;;;;4994307;28;20045;-69
2022/01/28 08:13:22;;;;;;;17.05;11.45;;;;;;;;;;4994732;28;20034;-68
2022/01/28 08:15:48;;;;;;;18.70;12.88;;;;;;;;;;4993505;28;20571;-69
2022/01/28 08:18:14;;;;;;;19.08;12.45;;;;;;;;;;4994539;28;20039;-68
2022/01/28 08:20:41;;;;;;;18.48;12.63;;;;;;;;;;4994307;28;20044;-68
2022/01/28 08:23:07;;;;;;;18.45;12.82;;;;;;;;;;4994686;28;20041;-68
2022/01/28 08:25:35;;;;;;;27.52;13.98;;;;;;;;;;4992507;28;20037;-69
2022/01/28 08:28:01;;;;;;;18.38;11.80;;;;;;;;;;4994165;28;20138;-69
2022/01/28 08:30:29;;;;;;;21.27;13.90;;;;;;;;;;4994057;28;20078;-68
2022/01/28 08:32:56;;;;;;;20.60;14.32;;;;;;;;;;4994726;28;20425;-68
2022/01/28 08:35:29;;;;;;;17.27;11.27;;;;;;;;;;5017143;28;20049;-68
2022/01/28 08:37:57;;;;;;;23.55;13.43;;;;;;;;;;5016712;28;20044;-68
2022/01/28 08:40:23;;;;;;;18.63;12.57;;;;;;;;;;5017115;28;20128;-69
2022/01/28 08:42:50;;;;;;;19.60;13.07;;;;;;;;;;5016551;28;20598;-68
2022/01/28 08:45:16;;;;;;;19.73;12.98;;;;;;;;;;5016661;28;20042;-68
2022/01/28 08:47:42;;;;;;;23.83;13.07;;;;;;;;;;5016721;28;20124;-68
2022/01/28 08:50:08;;;;;;;20.13;11.95;;;;;;;;;;5017791;28;20046;-69
2022/01/28 08:52:35;;;;;;;17.00;10.77;;;;;;;;;;5016903;28;20060;-68
2022/01/28 08:55:01;;;;;;;22.65;13.25;;;;;;;;;;5016547;28;20069;-69
2022/01/28 08:57:27;;;;;;;21.90;13.65;;;;;;;;;;5017154;28;20056;-68
2022/01/28 08:59:54;;;;;;;18.52;12.95;;;;;;;;;;5017352;28;20068;-68
2022/01/28 09:02:20;;;;;;;21.77;13.15;;;;;;;;;;5017133;28;20116;-68
2022/01/28 09:04:46;;;;;;;18.95;11.90;;;;;;;;;;5016254;28;20064;-69
2022/01/28 09:07:13;;;;;;;21.40;13.13;;;;;;;;;;5017308;28;20042;-69
2022/01/28 09:09:48;;;;;;;18.40;11.77;;;;;;;;;;5016868;28;20049;-69
2022/01/28 09:12:35;;;;;;;19.00;12.32;;;;;;;;;;5017025;28;20033;-69
2022/01/28 09:15:01;;;;;;;23.40;14.27;;;;;;;;;;5016659;28;20046;-69
2022/01/28 09:17:28;;;;;;;17.08;12.25;;;;;;;;;;5017354;28;20473;-69
2022/01/28 09:19:54;;;;;;;19.88;12.90;;;;;;;;;;5016817;28;20065;-69
2022/01/28 09:22:20;;;;;;;23.15;14.27;;;;;;;;;;5016755;28;20034;-69
2022/01/28 09:24:46;;;;;;;21.80;14.15;;;;;;;;;;5015344;28;20473;-69
2022/01/28 09:27:12;;;;;;;23.33;13.13;;;;;;;;;;5016769;28;20116;-69
2022/01/28 09:29:39;;;;;;;19.98;12.65;;;;;;;;;;5016396;28;20063;-69
2022/01/28 09:32:05;;;;;;;18.17;11.70;;;;;;;;;;5016668;28;20041;-69
2022/01/28 09:34:32;;;;;;;18.13;11.90;;;;;;;;;;5016689;28;20033;-68
2022/01/28 09:36:58;;;;;;;20.75;12.95;;;;;;;;;;5017102;28;20080;-68
2022/01/28 09:39:24;;;;;;;16.80;11.50;;;;;;;;;;5016593;28;20045;-69
2022/01/28 09:41:59;;;;;;;17.40;12.50;;;;;;;;;;5016440;28;20465;-69
2022/01/28 09:44:25;;;;;;;18.40;12.20;;;;;;;;;;5016266;28;20088;-69
2022/01/28 09:46:51;;;;;;;19.95;12.45;;;;;;;;;;5014457;28;20539;-69
2022/01/28 09:49:18;;;;;;;21.83;14.00;;;;;;;;;;5016156;28;20493;-69
2022/01/28 09:51:44;;;;;;;21.05;13.40;;;;;;;;;;5015831;28;20037;-69
2022/01/28 09:54:10;;;;;;;19.60;12.55;;;;;;;;;;5016079;28;20482;-69
2022/01/28 09:56:36;;;;;;;19.05;12.75;;;;;;;;;;5014458;28;20080;-69
2022/01/28 09:59:03;;;;;;;19.85;12.30;;;;;;;;;;5016723;28;20120;-69
2022/01/28 10:01:29;;;;;;;18.92;13.07;;;;;;;;;;5016463;28;20064;-69
2022/01/28 10:03:59;;;;;;;18.83;11.43;;;;;;;;;;5016034;28;20049;-69
2022/01/28 10:06:33;;;;;;;20.83;13.45;;;;;;;;;;5016044;28;20419;-69
2022/01/28 10:09:02;;;;;;;17.95;12.13;;;;;;;;;;5016520;28;20566;-69
2022/01/28 10:11:29;;;;;;;17.98;12.52;;;;;;;;;;5016157;28;20038;-68
2022/01/28 10:13:57;;;;;;;18.70;11.93;;;;;;;;;;5015758;28;20473;-69
2022/01/28 10:16:30;;;;;;;19.90;13.27;;;;;;;;;;5015682;28;20108;-69
2022/01/28 10:19:14;;;;;;;20.45;13.50;;;;;;;;;;5015958;28;20041;-69
2022/01/28 10:21:41;;;;;;;20.10;13.27;;;;;;;;;;5016038;28;20037;-69
2022/01/28 10:24:17;;;;;;;20.77;12.85;;;;;;;;;;5014807;28;20034;-69
2022/01/28 10:26:43;;;;;;;19.63;12.52;;;;;;;;;;5014327;28;20045;-69
2022/01/28 10:29:12;;;;;;;20.05;12.70;;;;;;;;;;5014695;28;20497;-69
2022/01/28 10:31:40;;;;;;;18.85;12.07;;;;;;;;;;5015460;28;20393;-69
2022/01/28 10:34:12;;;;;;;20.50;13.05;;;;;;;;;;5014303;28;20129;-69
2022/01/28 10:36:38;;;;;;;19.98;12.23;;;;;;;;;;5014229;28;20109;-69
2022/01/28 10:39:04;;;;;;;22.55;14.05;;;;;;;;;;5013538;28;20389;-69
2022/01/28 10:41:30;;;;;;;20.25;13.20;;;;;;;;;;5013986;28;20057;-69
2022/01/28 10:43:57;;;;;;;20.20;13.38;;;;;;;;;;5013529;28;20042;-69
2022/01/28 10:46:35;;;;;;;19.80;12.90;;;;;;;;;;5014374;28;20037;-69
2022/01/28 10:49:03;;;;;;;19.40;12.30;;;;;;;;;;5015336;28;20041;-69
2022/01/28 10:51:42;;;;;;;19.75;13.40;;;;;;;;;;5015518;28;20117;-69
2022/01/28 10:54:20;;;;;;;19.50;13.05;;;;;;;;;;5014189;28;20046;-69
2022/01/28 10:56:47;;;;;;;18.42;11.88;;;;;;;;;;5013121;28;20046;-70
2022/01/28 10:59:15;;;;;;;20.30;12.80;;;;;;;;;;5014603;28;20037;-69
2022/01/28 11:01:42;;;;;;;22.25;13.68;;;;;;;;;;5015034;28;20247;-69
2022/01/28 11:04:10;;;;;;;23.38;13.50;;;;;;;;;;5014819;28;20042;-70
2022/01/28 11:06:37;;;;;;;19.73;13.07;;;;;;;;;;5014418;28;20044;-70
2022/01/28 11:09:03;;;;;;;18.85;12.65;;;;;;;;;;5015180;28;20077;-69
2022/01/28 11:11:29;;;;;;;22.13;13.13;;;;;;;;;;5014557;28;20033;-70
2022/01/28 11:13:56;;;;;;;20.25;13.13;;;;;;;;;;5014639;28;20119;-69
2022/01/28 11:16:23;;;;;;;20.23;12.82;;;;;;;;;;5014759;28;20042;-69
2022/01/28 11:18:49;;;;;;;19.02;12.15;;;;;;;;;;5014174;28;20038;-69
2022/01/28 11:21:17;;;;;;;20.30;13.57;;;;;;;;;;5014506;28;20048;-69
2022/01/28 11:24:21;;;;;;;18.48;11.93;;;;;;;;;;5012272;28;20149;-69
2022/01/28 11:26:57;;;;;;;20.40;13.15;;;;;;;;;;5010065;28;20085;-69
2022/01/28 11:29:27;;;;;;;18.75;12.80;;;;;;;;;;5012529;28;20108;-69
2022/01/28 11:31:54;;;;;;;20.27;13.00;;;;;;;;;;5012284;28;20377;-70
2022/01/28 11:34:24;;;;;;;21.98;14.20;;;;;;;;;;5014393;28;20041;-69
2022/01/28 11:36:54;;;;;;;21.50;13.60;;;;;;;;;;5013945;28;20042;-70
2022/01/28 11:39:22;;;;;;;19.90;13.40;;;;;;;;;;5012512;28;20057;-70
2022/01/28 11:42:07;;;;;;;18.23;12.00;;;;;;;;;;5013766;28;20037;-70
2022/01/28 11:44:52;;;;;;;19.17;12.00;;;;;;;;;;5013986;28;20125;-70
2022/01/28 11:47:24;;;;;;;20.42;12.18;;;;;;;;;;5014013;28;20049;-70
2022/01/28 11:49:53;;;;;;;20.35;13.07;;;;;;;;;;5012789;28;20065;-70
2022/01/28 11:52:25;;;;;;;21.05;13.52;;;;;;;;;;5013430;28;20284;-69
2022/01/28 11:54:51;;;;;;;20.98;13.07;;;;;;;;;;5012607;28;20370;-70
2022/01/28 11:57:17;;;;;;;21.00;12.98;;;;;;;;;;5013298;28;20579;-70
2022/01/28 11:59:44;;;;;;;21.42;12.40;;;;;;;;;;5013613;28;20038;-73
2022/01/28 12:02:12;;;;;;;20.52;12.65;;;;;;;;;;5012733;28;20044;-71
2022/01/28 12:04:39;;;;;;;20.40;12.38;;;;;;;;;;5012730;28;20061;-71
2022/01/28 12:07:10;;;;;;;19.17;12.10;;;;;;;;;;5012594;28;20041;-71
2022/01/28 12:12:24;;;;;;;18.05;11.85;;;;;;;;;;5170454;27;20528;-72
2022/01/28 12:14:52;;;;;;;17.25;11.63;;;;;;;;;;5151547;27;20381;-71
2022/01/28 12:17:33;;;;;;;18.23;11.68;;;;;;;;;;5152335;27;20083;-72
2022/01/28 12:19:59;;;;;;;;;;;;;;;;;;5130747;28;20119;-72
2022/01/28 12:22:25;;;;;;;16.88;11.15;;;;;;;;;;5142659;27;19939;-72
2022/01/28 12:24:51;;;;;;;16.58;10.63;;;;;;;;;;5150279;27;20038;-72
2022/01/28 12:27:19;;;;;;;16.90;10.65;;;;;;;;;;5150421;27;20035;-72
2022/01/28 12:29:46;;;;;;;16.67;11.32;;;;;;;;;;5152221;27;20035;-72
2022/01/28 12:32:13;;;;;;;15.13;10.10;;;;;;;;;;5150305;27;20129;-72
2022/01/28 12:34:46;;;;;;;15.35;10.18;;;;;;;;;;5147273;27;20085;-72
2022/01/28 12:37:12;;;;;;;17.08;11.05;;;;;;;;;;5150571;27;20034;-72
2022/01/28 12:39:44;;;;;;;17.83;10.38;;;;;;;;;;5137679;27;20114;-72
2022/01/28 12:42:23;;;;;;;18.85;11.45;;;;;;;;;;5142607;27;20489;-72
2022/01/28 12:44:52;;;;;;;19.20;10.93;;;;;;;;;;5149761;27;20432;-71
2022/01/28 12:47:18;;;;;;;18.60;12.25;;;;;;;;;;5150289;27;20054;-71
2022/01/28 12:49:46;;;;;;;18.52;11.10;;;;;;;;;;5121626;28;20392;-71
2022/01/28 12:52:12;;;;;;;15.98;10.95;;;;;;;;;;5135379;27;20054;-71
2022/01/28 12:54:39;;;;;;;19.77;12.10;;;;;;;;;;5147369;27;20058;-71
2022/01/28 12:57:06;;;;;;;20.30;12.73;;;;;;;;;;5142404;27;20126;-70
2022/01/28 12:59:32;;;;;;;20.23;12.80;;;;;;;;;;5146983;27;20039;-71
2022/01/28 13:02:00;;;;;;;18.05;11.95;;;;;;;;;;5150270;27;20061;-71
2022/01/28 13:04:48;;;;;;;18.23;12.48;;;;;;;;;;5149890;27;20110;-71
2022/01/28 13:10:08;;;;;;;21.98;12.60;;;;;;;;;;5089937;28;20083;-69
2022/01/28 13:12:34;;;;;;;18.77;11.88;;;;;;;;;;5109787;28;20040;-69
2022/01/28 13:15:11;;;;;;;19.40;12.18;;;;;;;;;;5116955;28;20482;-69
2022/01/28 13:17:39;;;;;;;22.00;11.70;;;;;;;;;;5130527;28;20505;-70
2022/01/28 13:20:09;;;;;;;18.95;11.65;;;;;;;;;;5129522;28;20039;-69
2022/01/28 13:22:36;;;;;;;22.70;12.50;;;;;;;;;;5122182;27;20032;-69
2022/01/28 13:25:02;;;;;;;23.27;12.98;;;;;;;;;;5116706;28;20048;-70
2022/01/28 13:27:48;;;;;;;23.23;13.32;;;;;;;;;;5117267;28;20046;-69
2022/01/28 13:30:15;;;;;;;24.02;14.27;;;;;;;;;;5116412;28;20116;-69
2022/01/28 13:32:45;;;;;;;23.17;14.75;;;;;;;;;;5116132;28;20031;-69
2022/01/28 13:35:32;;;;;;;27.42;15.10;;;;;;;;;;5099271;28;20108;-69
2022/01/28 13:38:02;;;;;;;24.80;14.82;;;;;;;;;;5103518;28;20405;-69
2022/01/28 13:40:28;;;;;;;24.52;15.65;;;;;;;;;;5117855;28;20168;-69
2022/01/28 13:43:02;;;;;;;25.13;15.32;;;;;;;;;;5117236;28;20036;-70
2022/01/28 13:45:36;;;;;;;25.40;16.30;;;;;;;;;;5117241;28;20043;-69
2022/01/28 13:48:02;;;;;;;27.40;16.98;;;;;;;;;;5116628;27;20482;-70
2022/01/28 13:50:34;;;;;;;24.90;15.68;;;;;;;;;;5114911;28;20081;-70
2022/01/28 13:53:08;;;;;;;28.08;15.32;;;;;;;;;;5106645;28;20040;-70
2022/01/28 13:55:36;;;;;;;27.48;15.18;;;;;;;;;;5116541;28;20041;-69
2022/01/28 13:58:06;;;;;;;22.90;14.75;;;;;;;;;;5116482;28;20386;-69
2022/01/28 14:00:39;;;;;;;23.75;13.32;;;;;;;;;;5116679;28;20118;-69
2022/01/28 14:03:06;;;;;;;21.77;13.98;;;;;;;;;;5109724;28;20115;-69
2022/01/28 14:05:49;;;;;;;20.55;12.75;;;;;;;;;;5115949;28;20537;-69
2022/01/28 14:08:36;;;;;;;19.40;12.82;;;;;;;;;;5114223;28;20112;-70
2022/01/28 14:11:18;;;;;;;21.15;13.57;;;;;;;;;;5124867;27;20046;-70
2022/01/28 14:13:44;;;;;;;20.67;14.20;;;;;;;;;;5122319;27;20036;-70
2022/01/28 14:16:15;;;;;;;21.60;14.63;;;;;;;;;;5114465;27;20118;-70
2022/01/28 14:18:41;;;;;;;;;;;;;;;;;;5115735;28;20092;-70
2022/01/28 14:21:07;;;;;;;21.75;13.52;;;;;;;;;;5115877;28;19903;-70
2022/01/28 14:23:45;;;;;;;21.67;13.82;;;;;;;;;;5127421;27;20038;-70
2022/01/28 14:26:12;;;;;;;19.02;12.70;;;;;;;;;;5126900;27;20047;-70
2022/01/28 14:29:23;;;;;;;19.25;12.95;;;;;;;;;;5136355;27;20125;-69
2022/01/28 14:31:28;;;;;;;22.05;13.48;;;;;;;;;;5127321;27;20156;-70
2022/01/28 14:33:54;;;;;;;20.95;13.95;;;;;;;;;;5134832;27;20027;-70
2022/01/28 14:36:21;;;;;;;19.45;13.43;;;;;;;;;;5108558;28;20066;-70
2022/01/28 14:38:47;;;;;;;22.20;13.23;;;;;;;;;;5116069;28;20024;-71
2022/01/28 14:41:14;;;;;;;20.83;12.38;;;;;;;;;;5116262;27;20047;-70
2022/01/28 14:43:43;;;;;;;22.73;12.85;;;;;;;;;;5132763;27;20032;-70
2022/01/28 14:46:09;;;;;;;16.77;11.18;;;;;;;;;;5123715;27;20039;-70
2022/01/28 14:48:35;;;;;;;22.35;13.55;;;;;;;;;;5132041;27;20074;-71
2022/01/28 14:51:01;;;;;;;19.48;12.52;;;;;;;;;;5131389;27;20047;-70
2022/01/28 14:53:27;;;;;;;21.60;12.10;;;;;;;;;;5135621;27;20031;-70
2022/01/28 14:55:54;;;;;;;21.77;13.55;;;;;;;;;;5136391;27;20039;-70
2022/01/28 14:58:20;;;;;;;22.42;14.00;;;;;;;;;;5132052;27;20028;-70
2022/01/28 15:00:46;;;;;;;20.52;12.88;;;;;;;;;;5132206;27;20043;-70
2022/01/28 15:03:12;;;;;;;22.92;13.93;;;;;;;;;;5133892;27;20031;-70
2022/01/28 15:05:39;;;;;;;21.73;14.05;;;;;;;;;;5120825;27;20093;-70
2022/01/28 15:08:11;;;;;;;21.95;14.70;;;;;;;;;;5135706;27;20158;-70
2022/01/28 15:10:39;;;;;;;22.63;14.43;;;;;;;;;;5123222;27;20051;-70
2022/01/28 15:13:05;;;;;;;22.58;14.20;;;;;;;;;;5125630;27;20047;-72
2022/01/28 15:15:32;;;;;;;19.85;12.55;;;;;;;;;;5135641;27;20492;-70
2022/01/28 15:17:58;;;;;;;21.50;14.13;;;;;;;;;;5135358;27;20042;-70
2022/01/28 15:20:27;;;;;;;23.73;14.88;;;;;;;;;;5134020;27;20039;-70
2022/01/28 15:22:54;;;;;;;21.08;13.35;;;;;;;;;;5132636;27;20027;-70
2022/01/28 15:25:20;;;;;;;23.48;14.80;;;;;;;;;;5134537;27;20037;-69
2022/01/28 15:27:47;;;;;;;22.80;14.55;;;;;;;;;;5134339;27;20504;-69
2022/01/28 15:36:00;;;;;;;21.27;13.60;;;;;;;;;;5135513;27;20114;-70
2022/01/28 15:38:26;;;;;;;;;;;;;;;;;;5136193;27;20100;-70
2022/01/28 15:40:52;;;;;;;25.92;15.13;;;;;;;;;;5133978;27;19904;-70
2022/01/28 15:43:20;;;;;;;22.45;13.80;;;;;;;;;;5133804;27;20042;-70
2022/01/28 15:45:47;;;;;;;24.67;14.73;;;;;;;;;;5133961;27;20027;-70
2022/01/28 15:48:14;;;;;;;25.02;15.18;;;;;;;;;;5134352;27;20043;-70
2022/01/28 15:50:42;;;;;;;23.83;14.55;;;;;;;;;;5134421;27;20062;-70
2022/01/28 15:53:08;;;;;;;26.15;15.73;;;;;;;;;;5134821;27;20095;-70
2022/01/28 15:55:34;;;;;;;28.92;16.45;;;;;;;;;;5135461;27;20031;-70
2022/01/28 15:58:00;;;;;;;24.90;14.43;;;;;;;;;;5135414;27;20034;-70
2022/01/28 16:00:26;;;;;;;23.35;15.25;;;;;;;;;;5136311;27;20083;-70
2022/01/28 16:02:52;;;;;;;21.35;13.88;;;;;;;;;;5135527;27;20038;-70
2022/01/28 16:05:19;;;;;;;22.67;15.05;;;;;;;;;;5135317;27;20493;-70